MET'MAP v2.0
soon released !

Expected late october,
this new version will be
more efficient, smarter,
and hosted on a brand new
server x3 powerfull...
...and still free !


Not compatible ?
Try the mobile version !

LOG IN : | Subscribe | Disclaimer | Who is Orbifly ? |
ICAO code :

TAF - LIPI Rivolto AFB Udine - 14 Dec 2019 13:30 UTC - Data Source NOAA   


- Airport Elevation : 179 ft
- No reported NOTAMs.


LIPI - Rivolto AFB Udine

Latest METAR recorded : 2015/08/10 16:55 LIPI 101655Z 07008KT 9999 FEW030 31/15 Q1012 RMK FEW VIS MIN 9999 WIND THR06 07008KT BLU
Expired Forecast.

Source NOAA


MET'MAP, your aeronautical weather chart ! - Copyright ORBIFLY December 2007

Programming & Development : Alexandra Zaïnal
Co-Developer : Marc-Olivier Méhu
Technical & hardware support : Manuel Goepfert
Concept & Financing : Baudouin d'Aumeries